createdAt,value
2023-04-09T00:00:20.817Z,0
2023-04-09T00:03:19.306Z,4.5
2023-04-09T00:06:03.259Z,4.2
2023-04-09T00:10:47.775Z,0
2023-04-09T00:15:38.702Z,4
2023-04-09T00:20:35.857Z,4.5
2023-04-09T00:22:43.023Z,0
2023-04-09T00:25:39.352Z,4.5
2023-04-09T00:28:21.491Z,5.1
2023-04-09T00:36:05.204Z,4.3
2023-04-09T00:38:53.862Z,4.4
2023-04-09T00:41:27.622Z,0
2023-04-09T01:16:41.197Z,0
2023-04-09T01:34:13.906Z,4
2023-04-09T01:36:50.731Z,0
2023-04-09T04:44:37.624Z,4
2023-04-09T04:47:00.945Z,0
2023-04-09T04:54:52.380Z,0
2023-04-09T06:05:34.437Z,4
2023-04-09T06:10:43.473Z,4.5
2023-04-09T06:13:28.443Z,7.5
2023-04-09T06:18:14.993Z,6
2023-04-09T06:20:16.631Z,6.3
2023-04-09T06:28:07.170Z,9.3
2023-04-09T06:33:12.868Z,8.1
2023-04-09T06:43:42.643Z,9.9
2023-04-09T06:49:07.037Z,8.1
2023-04-09T06:51:27.481Z,7.9
2023-04-09T06:56:29.412Z,5.8
2023-04-09T06:59:10.831Z,7.8
2023-04-09T07:14:31.782Z,8.4
2023-04-09T07:44:52.025Z,9.2
2023-04-09T07:47:15.311Z,9.7
2023-04-09T07:49:24.037Z,10.7
2023-04-09T07:55:06.477Z,11.2
2023-04-09T07:57:36.018Z,11.3
2023-04-09T08:01:52.116Z,9.9
2023-04-09T08:04:42.873Z,8.9
2023-04-09T08:11:46.778Z,9.7
2023-04-09T08:25:09.587Z,11.1
2023-04-09T08:30:32.016Z,14.5
2023-04-09T08:34:56.993Z,13.9
2023-04-09T08:37:51.781Z,12
2023-04-09T08:40:32.003Z,11.2
2023-04-09T08:42:58.103Z,14.2
2023-04-09T08:48:10.763Z,15.6
2023-04-09T08:50:57.331Z,13.1
2023-04-09T08:55:47.291Z,14.8
2023-04-09T08:57:50.782Z,12.4
2023-04-09T09:00:43.764Z,13.6
2023-04-09T09:03:22.448Z,12.5
2023-04-09T09:18:26.860Z,13.6
2023-04-09T09:20:28.243Z,14.9
2023-04-09T09:23:19.581Z,17.4
2023-04-09T09:25:56.238Z,13.3
2023-04-09T09:33:24.051Z,17.8
2023-04-09T09:46:43.028Z,15
2023-04-09T09:49:18.144Z,16
2023-04-09T09:51:38.536Z,13.4
2023-04-09T09:56:40.227Z,13.2
2023-04-09T09:59:21.499Z,11.4
2023-04-09T10:01:48.586Z,14.3
2023-04-09T10:07:02.797Z,14.5
2023-04-09T10:07:24.264Z,20.5
2023-04-09T10:12:23.699Z,14.3
2023-04-09T10:14:42.330Z,12.5
2023-04-09T10:16:46.452Z,14.4
2023-04-09T10:24:44.701Z,15.6
2023-04-09T10:29:55.621Z,12
2023-04-09T10:32:31.025Z,10
2023-04-09T10:39:32.059Z,9.6
2023-04-09T10:42:24.100Z,9.9
2023-04-09T10:49:33.829Z,11.3
2023-04-09T11:00:00.798Z,8.9
2023-04-09T11:02:01.373Z,9.8
2023-04-09T11:11:55.778Z,14.1
2023-04-09T11:14:52.214Z,10
2023-04-09T11:17:34.367Z,15.8
2023-04-09T11:25:16.325Z,20
2023-04-09T11:28:06.589Z,21.6
2023-04-09T11:30:40.562Z,17.3
2023-04-09T11:33:21.717Z,9.2
2023-04-09T11:35:05.290Z,10.8
2023-04-09T11:37:59.964Z,12.2
2023-04-09T11:48:18.947Z,14.9
2023-04-09T11:51:05.315Z,10.3
2023-04-09T11:53:37.471Z,9.2
2023-04-09T11:55:55.293Z,10.8
2023-04-09T11:57:58.689Z,13.8
2023-04-09T12:08:03.901Z,11.7
2023-04-09T12:11:03.065Z,11.4
2023-04-09T12:13:47.916Z,12.3
2023-04-09T12:15:15.402Z,21.8
2023-04-09T12:23:27.045Z,15.5
2023-04-09T12:26:03.678Z,15.2
2023-04-09T12:28:25.832Z,13.4
2023-04-09T12:36:14.111Z,15.2
2023-04-09T12:38:42.521Z,10.8
2023-04-09T12:40:56.908Z,13.4
2023-04-09T12:44:00.615Z,11.2
2023-04-09T12:49:24.785Z,13.5
2023-04-09T12:53:51.880Z,11.4
2023-04-09T13:01:54.774Z,10.5
2023-04-09T13:04:07.066Z,12.7
2023-04-09T13:09:56.563Z,11.4
2023-04-09T13:12:29.547Z,9.3
2023-04-09T13:14:48.329Z,10
2023-04-09T13:19:46.362Z,12.3
2023-04-09T13:24:50.713Z,12.3
2023-04-09T13:30:01.292Z,15.5
2023-04-09T13:32:47.143Z,14.7
2023-04-09T13:35:18.381Z,11.4
2023-04-09T13:37:35.158Z,17.1
2023-04-09T13:47:30.639Z,13
2023-04-09T13:52:37.398Z,10.6
2023-04-09T13:57:50.652Z,14.6
2023-04-09T14:00:05.454Z,14.8
2023-04-09T14:02:05.986Z,18.3
2023-04-09T14:12:00.340Z,12.3
2023-04-09T14:20:06.450Z,11.4
2023-04-09T14:22:19.850Z,12.9
2023-04-09T14:28:10.781Z,10.5
2023-04-09T14:38:04.035Z,10.9
2023-04-09T14:42:30.975Z,9
2023-04-09T14:48:08.140Z,14.2
2023-04-09T14:52:47.556Z,13.6
2023-04-09T15:01:10.690Z,13.5
2023-04-09T15:08:27.835Z,9.6
2023-04-09T15:11:07.294Z,10.8
2023-04-09T15:13:32.553Z,11.9
2023-04-09T15:18:43.589Z,11.2
2023-04-09T15:21:29.317Z,12.9
2023-04-09T15:26:17.882Z,10.8
2023-04-09T15:31:12.607Z,15.4
2023-04-09T15:33:50.470Z,10.6
2023-04-09T15:36:13.522Z,11.8
2023-04-09T15:41:21.196Z,12.5
2023-04-09T15:46:34.826Z,9.8
2023-04-09T15:50:50.859Z,10.1
2023-04-09T15:53:41.067Z,11.2
2023-04-09T15:56:17.058Z,10.5
2023-04-09T16:00:45.517Z,9.4
2023-04-09T16:03:42.348Z,12
2023-04-09T16:06:24.544Z,11.5
2023-04-09T16:08:52.448Z,11.2
2023-04-09T16:11:05.719Z,10
2023-04-09T16:16:57.513Z,9.4
2023-04-09T16:19:31.598Z,8.1
2023-04-09T16:23:56.627Z,9.2
2023-04-09T16:39:57.445Z,8.7
2023-04-09T16:42:29.588Z,10.5
2023-04-09T16:46:51.005Z,10.1
2023-04-09T16:49:44.221Z,9.9
2023-04-09T16:56:56.805Z,9.1
2023-04-09T16:59:56.102Z,8.3
2023-04-09T17:02:41.303Z,7
2023-04-09T17:05:11.546Z,6.5
2023-04-09T17:07:27.726Z,12.2
2023-04-09T17:12:20.479Z,9.2
2023-04-09T17:17:19.850Z,7.8
2023-04-09T17:22:25.277Z,7
2023-04-09T17:27:37.173Z,6.4
2023-04-09T17:32:55.247Z,7.3
2023-04-09T17:40:40.002Z,6.4
2023-04-09T17:42:46.305Z,9.2
2023-04-09T17:50:50.369Z,5.6
2023-04-09T18:01:25.870Z,4.3
2023-04-09T18:03:44.768Z,0
2023-04-09T18:11:22.150Z,6.1
2023-04-09T18:18:58.150Z,5.6
2023-04-09T18:21:43.879Z,6.1
2023-04-09T18:28:34.965Z,0
2023-04-09T20:09:40.779Z,4
2023-04-09T20:12:32.099Z,0
2023-04-09T20:27:48.421Z,4.8
2023-04-09T20:48:34.123Z,4.8
2023-04-09T20:51:00.795Z,0
2023-04-09T20:53:13.339Z,4.7
2023-04-09T20:56:15.291Z,0
2023-04-09T21:01:36.167Z,4
2023-04-09T21:03:54.901Z,0
2023-04-09T22:29:53.017Z,4
2023-04-09T22:32:19.043Z,6.8
2023-04-09T22:37:31.454Z,4.7
2023-04-09T22:42:50.154Z,0
